Baia Mare, Baia Mare Airport (LRBM)

NameBaia Mare Airport
CityBaia Mare
CountryRomania
ICAOLRBM
IATABAY
Altitude184 m
CoordinatesGoogle Map
Live Air TrafficLiveATC.net
METARLRBM 220700Z 04001KT 5000 -RA BR FEW006 OVC022 02/01 Q1018 R09/29//95
2019-02-22 07:00:00 Wind: North-Northeast (40°) 0.51 m/s - Visibility: 5000 m - Weather: Light Rain / Mist - Temperature: 2 °C - Dew point: 1 °C - Humidity: 93.2% - Pressure: 1018 hPa

Sorry, no flights used the airport in this database.